Joshua David Esper — WDD8059 — position and weather

sailwx.info

Track history (hours):
 
Tides and Currents Weather Stations Pressure Air Temp Water Temp Dewpoint Dewpoint Depression Visibility Wind Speed Wind Dir Waves Ship Positions

Joshua David Esper

Owner: Marquette Transportation Company LLC, Paducah, KY. More information available from US FCC via Universal Licensing System and Coast Guard Vessel Documentation Center.

Last reported at 2017-Nov-13 01:55 UTC. Time now 2017-Nov-19 06:46 UTC.
Position N 32°39' W 091°09'.

Length 42 m; draft 2.7 m.

Type: Tow > 200 m length. MMSI: 367194680.

Date/timePositionNaut miles runAvg speedWind from/ knotsBaromVisibWave heightAir tempDewpointWater temp
2017-Nov-13 01:55N 32°39' W 091°09'1 3.5
2017-Nov-13 01:30N 32°38' W 091°09'3 3.9
2017-Nov-13 00:47N 32°35' W 091°08'1 4.4
2017-Nov-13 00:30N 32°35' W 091°07'2 4.0
2017-Nov-13 00:00N 32°33' W 091°06'2 4.3
2017-Nov-12 23:30N 32°31' W 091°07'2 4.9
2017-Nov-12 23:00N 32°28' W 091°06'2 4.8
2017-Nov-12 22:30N 32°27' W 091°04'2 4.7
2017-Nov-12 22:00N 32°26' W 091°02'2 4.4
2017-Nov-12 21:30N 32°25' W 090°60'2 3.7
2017-Nov-12 21:00N 32°23' W 090°60'1 1.0
2017-Nov-12 20:30N 32°22' W 091°00'2 3.4
2017-Nov-12 20:01N 32°21' W 090°59'3 5.0
2017-Nov-12 19:30N 32°21' W 090°56'2 4.0
2017-Nov-12 19:00N 32°20' W 090°54'2 4.6
2017-Nov-12 18:30N 32°18' W 090°55'2 4.9
2017-Nov-12 18:00N 32°16' W 090°58'2 4.2
2017-Nov-12 17:30N 32°14' W 090°59'2 4.8
2017-Nov-12 17:00N 32°12' W 090°59'2 4.4
2017-Nov-12 16:30N 32°10' W 091°00'2 4.5
2017-Nov-12 16:00N 32°08' W 091°01'2 3.7
2017-Nov-12 15:30N 32°07' W 091°03'3 4.4
2017-Nov-12 14:52N 32°08' W 091°06'1 3.6
2017-Nov-12 14:30N 32°07' W 091°07'4 4.6
2017-Nov-12 13:32N 32°03' W 091°03'0 4.8
2017-Nov-12 13:30N 32°03' W 091°03'4 5.4
2017-Nov-12 12:51N 32°00' W 091°05'5 4.5
2017-Nov-12 11:50N 31°59' W 091°11'1 4.4
2017-Nov-12 11:30N 31°57' W 091°11'3 4.9
2017-Nov-12 10:53N 31°54' W 091°12'2 4.4
2017-Nov-12 10:30N 31°53' W 091°13'2 4.9
2017-Nov-12 10:00N 31°52' W 091°16'4 4.4
2017-Nov-12 09:06N 31°51' W 091°20'0 4.2
2017-Nov-12 09:00N 31°51' W 091°21'2 4.2
2017-Nov-12 08:30N 31°49' W 091°21'0 0.9
2017-Nov-12 08:00N 31°49' W 091°22'3 4.7
2017-Nov-12 07:25N 31°46' W 091°22'  
2017-Nov-05 03:55N 31°60' W 091°05'4 9.3
2017-Nov-05 03:30N 32°03' W 091°03'4 8.6
2017-Nov-05 03:00N 32°07' W 091°06'1 2.8
2017-Nov-05 02:30N 32°08' W 091°06'4 7.4
2017-Nov-05 02:00N 32°07' W 091°01'4 8.7
2017-Nov-05 01:30N 32°11' W 090°60'4 8.5
2017-Nov-05 01:00N 32°15' W 090°58'5 9.0
2017-Nov-05 00:30N 32°19' W 090°54'3 5.7
2017-Nov-05 00:00N 32°21' W 090°57'3 6.8
2017-Nov-04 23:30N 32°23' W 091°00'4 7.4
2017-Nov-04 23:00N 32°26' W 091°02'4 8.7
2017-Nov-04 22:30N 32°28' W 091°06'5 8.9
2017-Nov-04 21:57N 32°33' W 091°06'4 8.9
2017-Nov-04 21:30N 32°36' W 091°09'  
Track history (hours):
 
Tides and Currents Weather Stations Pressure Air Temp Water Temp Dewpoint Dewpoint Depression Visibility Wind Speed Wind Dir Waves Ship Positions

Joshua David Esper

Owner: Marquette Transportation Company LLC, Paducah, KY. More information available from US FCC via Universal Licensing System and Coast Guard Vessel Documentation Center.

Last reported at 2017-Nov-13 01:55 UTC. Time now 2017-Nov-19 06:46 UTC.
Position N 32°39' W 091°09'.

Length 42 m; draft 2.7 m.

Type: Tow > 200 m length. MMSI: 367194680.

Date/timePositionNaut miles runAvg speedWind from/ knotsBaromVisibWave heightAir tempDewpointWater temp
2017-Nov-13 01:55N 32°39' W 091°09'1 3.5
2017-Nov-13 01:30N 32°38' W 091°09'3 3.9
2017-Nov-13 00:47N 32°35' W 091°08'1 4.4
2017-Nov-13 00:30N 32°35' W 091°07'2 4.0
2017-Nov-13 00:00N 32°33' W 091°06'2 4.3
2017-Nov-12 23:30N 32°31' W 091°07'2 4.9
2017-Nov-12 23:00N 32°28' W 091°06'2 4.8
2017-Nov-12 22:30N 32°27' W 091°04'2 4.7
2017-Nov-12 22:00N 32°26' W 091°02'2 4.4
2017-Nov-12 21:30N 32°25' W 090°60'2 3.7
2017-Nov-12 21:00N 32°23' W 090°60'1 1.0
2017-Nov-12 20:30N 32°22' W 091°00'2 3.4
2017-Nov-12 20:01N 32°21' W 090°59'3 5.0
2017-Nov-12 19:30N 32°21' W 090°56'2 4.0
2017-Nov-12 19:00N 32°20' W 090°54'2 4.6
2017-Nov-12 18:30N 32°18' W 090°55'2 4.9
2017-Nov-12 18:00N 32°16' W 090°58'2 4.2
2017-Nov-12 17:30N 32°14' W 090°59'2 4.8
2017-Nov-12 17:00N 32°12' W 090°59'2 4.4
2017-Nov-12 16:30N 32°10' W 091°00'2 4.5
2017-Nov-12 16:00N 32°08' W 091°01'2 3.7
2017-Nov-12 15:30N 32°07' W 091°03'3 4.4
2017-Nov-12 14:52N 32°08' W 091°06'1 3.6
2017-Nov-12 14:30N 32°07' W 091°07'4 4.6
2017-Nov-12 13:32N 32°03' W 091°03'0 4.8
2017-Nov-12 13:30N 32°03' W 091°03'4 5.4
2017-Nov-12 12:51N 32°00' W 091°05'5 4.5
2017-Nov-12 11:50N 31°59' W 091°11'1 4.4
2017-Nov-12 11:30N 31°57' W 091°11'3 4.9
2017-Nov-12 10:53N 31°54' W 091°12'2 4.4
2017-Nov-12 10:30N 31°53' W 091°13'2 4.9
2017-Nov-12 10:00N 31°52' W 091°16'4 4.4
2017-Nov-12 09:06N 31°51' W 091°20'0 4.2
2017-Nov-12 09:00N 31°51' W 091°21'2 4.2
2017-Nov-12 08:30N 31°49' W 091°21'0 0.9
2017-Nov-12 08:00N 31°49' W 091°22'3 4.7
2017-Nov-12 07:25N 31°46' W 091°22'  
2017-Nov-05 03:55N 31°60' W 091°05'4 9.3
2017-Nov-05 03:30N 32°03' W 091°03'4 8.6
2017-Nov-05 03:00N 32°07' W 091°06'1 2.8
2017-Nov-05 02:30N 32°08' W 091°06'4 7.4
2017-Nov-05 02:00N 32°07' W 091°01'4 8.7
2017-Nov-05 01:30N 32°11' W 090°60'4 8.5
2017-Nov-05 01:00N 32°15' W 090°58'5 9.0
2017-Nov-05 00:30N 32°19' W 090°54'3 5.7
2017-Nov-05 00:00N 32°21' W 090°57'3 6.8
2017-Nov-04 23:30N 32°23' W 091°00'4 7.4
2017-Nov-04 23:00N 32°26' W 091°02'4 8.7
2017-Nov-04 22:30N 32°28' W 091°06'5 8.9
2017-Nov-04 21:57N 32°33' W 091°06'4 8.9
2017-Nov-04 21:30N 32°36' W 091°09'  

Dump ship's entire track history